createdAt,value
2019-04-14T00:02:49.556Z,100630.02
2019-04-14T00:05:53.965Z,100626.94
2019-04-14T00:08:56.498Z,100624.43
2019-04-14T00:11:59.115Z,100621.48
2019-04-14T00:15:02.408Z,100621.77
2019-04-14T00:18:05.455Z,100624.75
2019-04-14T00:21:08.716Z,100614.48
2019-04-14T00:24:11.664Z,100615.09
2019-04-14T00:27:14.883Z,100614.20
2019-04-14T00:30:18.766Z,100615.84
2019-04-14T00:33:23.551Z,100607.44
2019-04-14T00:36:28.377Z,100614.33
2019-04-14T00:39:47.174Z,100606.75
2019-04-14T00:42:52.203Z,100615.06
2019-04-14T00:46:00.929Z,100613.41
2019-04-14T00:49:02.844Z,100602.78
2019-04-14T00:52:05.756Z,100602.25
2019-04-14T00:55:08.309Z,100603.33
2019-04-14T00:58:10.409Z,100602.85
2019-04-14T01:01:13.302Z,100597.17
2019-04-14T01:04:16.530Z,100599.58
2019-04-14T01:07:19.533Z,100600.59
2019-04-14T01:10:21.803Z,100605.04
2019-04-14T01:13:24.617Z,100599.30
2019-04-14T01:16:28.069Z,100601.33
2019-04-14T01:19:30.967Z,100595.62
2019-04-14T01:22:33.540Z,100594.60
2019-04-14T01:25:36.814Z,100593.49
2019-04-14T01:28:39.688Z,100597.59
2019-04-14T01:31:42.518Z,100598.19
2019-04-14T01:34:45.513Z,100601.68
2019-04-14T01:37:48.655Z,100599.71
2019-04-14T01:40:51.030Z,100601.96
2019-04-14T01:43:53.907Z,100597.87
2019-04-14T01:46:56.586Z,100598.47
2019-04-14T01:49:59.507Z,100594.09
2019-04-14T01:53:05.309Z,100591.59
2019-04-14T01:56:18.736Z,100591.84
2019-04-14T01:59:21.959Z,100581.82
2019-04-14T02:02:27.013Z,100579.37
2019-04-14T02:05:29.998Z,100566.98
2019-04-14T02:08:32.891Z,100572.27
2019-04-14T02:11:35.571Z,100571.79
2019-04-14T02:14:38.701Z,100571.19
2019-04-14T02:17:41.653Z,100575.76
2019-04-14T02:20:44.713Z,100577.73
2019-04-14T02:23:47.517Z,100585.66
2019-04-14T02:26:50.521Z,100580.55
2019-04-14T02:29:53.756Z,100584.12
2019-04-14T02:33:28.822Z,100585.43
2019-04-14T02:36:30.363Z,100587.08
2019-04-14T02:39:38.601Z,100589.69
2019-04-14T02:51:54.055Z,100592.60
2019-04-14T02:57:55.506Z,100593.49
2019-04-14T03:10:16.316Z,100585.05
2019-04-14T03:16:21.722Z,100594.52
2019-04-14T03:19:29.891Z,100592.41
2019-04-14T03:22:53.500Z,100594.86
2019-04-14T03:25:46.896Z,100591.66
2019-04-14T03:28:58.960Z,100593.23
2019-04-14T03:32:23.648Z,100593.78
2019-04-14T03:35:42.969Z,100599.23
2019-04-14T03:38:18.506Z,100593.72
2019-04-14T03:41:25.813Z,100598.06
2019-04-14T03:50:29.173Z,100590.48
2019-04-14T03:56:46.333Z,100596.34
2019-04-14T03:59:49.969Z,100599.36
2019-04-14T04:02:53.306Z,100600.38
2019-04-14T04:05:56.412Z,100604.13
2019-04-14T04:08:59.681Z,100601.90
2019-04-14T04:12:03.137Z,100603.16
2019-04-14T04:15:06.710Z,100608.43
2019-04-14T04:18:26.583Z,100600.50
2019-04-14T04:21:33.445Z,100603.73
2019-04-14T04:24:38.892Z,100605.10
2019-04-14T04:27:44.016Z,100600.25
2019-04-14T04:30:51.614Z,100598.41
2019-04-14T04:34:01.118Z,100600.25
2019-04-14T04:37:05.830Z,100594.19
2019-04-14T04:40:16.347Z,100600.13
2019-04-14T04:43:19.009Z,100598.70
2019-04-14T04:46:22.025Z,100606.12
2019-04-14T04:49:27.382Z,100606.47
2019-04-14T04:52:28.419Z,100609.64
2019-04-14T04:55:30.674Z,100604.27
2019-04-14T04:58:32.846Z,100608.01
2019-04-14T05:01:34.935Z,100619.33
2019-04-14T05:04:37.286Z,100613.70
2019-04-14T05:07:40.547Z,100617.03
2019-04-14T05:10:44.366Z,100615.41
2019-04-14T05:13:48.973Z,100621.22
2019-04-14T05:16:51.319Z,100625.20
2019-04-14T05:19:54.042Z,100618.36
2019-04-14T05:22:57.256Z,100617.67
2019-04-14T05:26:00.542Z,100613.31
2019-04-14T05:29:03.607Z,100620.44
2019-04-14T05:32:08.765Z,100616.78
2019-04-14T05:35:12.005Z,100620.94
2019-04-14T05:38:14.739Z,100627.20
2019-04-14T05:41:17.910Z,100622.73
2019-04-14T05:44:20.755Z,100628.06
2019-04-14T05:47:23.831Z,100633.26
2019-04-14T05:50:27.192Z,100628.92
2019-04-14T05:53:30.444Z,100628.75
2019-04-14T05:56:35.050Z,100635.23
2019-04-14T05:59:37.532Z,100636.16
2019-04-14T06:02:40.004Z,100640.67
2019-04-14T06:05:42.851Z,100637.81
2019-04-14T06:08:45.183Z,100632.09
2019-04-14T06:11:47.106Z,100639.50
2019-04-14T06:14:49.043Z,100630.55
2019-04-14T06:17:51.063Z,100637.55
2019-04-14T06:20:53.091Z,100644.74
2019-04-14T06:23:55.146Z,100639.17
2019-04-14T06:26:57.044Z,100637.34
2019-04-14T06:30:00.904Z,100638.13
2019-04-14T06:33:07.824Z,100638.27
2019-04-14T06:36:23.660Z,100636.60
2019-04-14T06:39:27.595Z,100640.43
2019-04-14T06:42:29.618Z,100640.23
2019-04-14T06:45:31.617Z,100646.77
2019-04-14T06:48:33.534Z,100648.23
2019-04-14T06:51:35.561Z,100641.88
2019-04-14T06:54:37.574Z,100654.22
2019-04-14T06:57:39.483Z,100644.61
2019-04-14T07:00:41.451Z,100656.64
2019-04-14T07:03:44.837Z,100650.89
2019-04-14T07:06:46.804Z,100650.76
2019-04-14T07:09:48.778Z,100655.47
2019-04-14T07:12:50.694Z,100664.77
2019-04-14T07:15:52.623Z,100663.70
2019-04-14T07:18:54.641Z,100665.62
2019-04-14T07:21:56.664Z,100667.01
2019-04-14T07:24:58.692Z,100669.21
2019-04-14T07:28:00.615Z,100671.59
2019-04-14T07:31:10.141Z,100666.84
2019-04-14T07:34:30.710Z,100671.19
2019-04-14T07:37:43.813Z,100668.66
2019-04-14T07:40:47.553Z,100670.06
2019-04-14T07:43:55.710Z,100677.31
2019-04-14T07:47:02.289Z,100674.86
2019-04-14T07:50:17.101Z,100674.36
2019-04-14T07:53:29.735Z,100681.25
2019-04-14T07:56:33.503Z,100686.47
2019-04-14T07:59:40.152Z,100682.10
2019-04-14T08:02:47.021Z,100677.13
2019-04-14T08:05:48.969Z,100682.38
2019-04-14T08:08:50.892Z,100676.38
2019-04-14T08:11:52.839Z,100675.28
2019-04-14T08:14:54.780Z,100681.05
2019-04-14T08:17:56.712Z,100681.02
2019-04-14T08:20:58.793Z,100684.80
2019-04-14T08:24:00.827Z,100682.08
2019-04-14T08:27:02.833Z,100688.93
2019-04-14T08:30:07.069Z,100684.84
2019-04-14T08:33:09.085Z,100683.47
2019-04-14T08:36:11.338Z,100692.74
2019-04-14T08:39:13.338Z,100687.95
2019-04-14T08:42:22.956Z,100680.41
2019-04-14T08:45:41.557Z,100686.03
2019-04-14T08:48:45.286Z,100686.20
2019-04-14T08:52:05.691Z,100691.66
2019-04-14T08:55:28.018Z,100698.07
2019-04-14T08:58:47.241Z,100692.48
2019-04-14T09:01:50.978Z,100688.03
2019-04-14T09:05:07.153Z,100697.45
2019-04-14T09:08:20.164Z,100682.21
2019-04-14T09:11:23.991Z,100685.59
2019-04-14T09:14:25.916Z,100685.27
2019-04-14T09:17:29.155Z,100687.99
2019-04-14T09:20:31.079Z,100686.97
2019-04-14T09:23:33.111Z,100682.12
2019-04-14T09:26:35.125Z,100685.70
2019-04-14T09:29:37.032Z,100681.64
2019-04-14T09:32:38.944Z,100681.00
2019-04-14T09:35:40.938Z,100681.35
2019-04-14T09:38:42.926Z,100682.90
2019-04-14T09:41:44.898Z,100684.51
2019-04-14T09:44:46.826Z,100690.27
2019-04-14T09:47:48.847Z,100684.83
2019-04-14T09:51:03.917Z,100690.67
2019-04-14T09:53:55.784Z,100687.81
2019-04-14T09:56:57.748Z,100693.30
2019-04-14T09:59:59.739Z,100685.77
2019-04-14T10:03:01.705Z,100694.25
2019-04-14T10:06:03.744Z,100694.91
2019-04-14T10:09:06.304Z,100696.88
2019-04-14T10:12:08.451Z,100691.34
2019-04-14T10:15:10.567Z,100699.62
2019-04-14T10:18:12.951Z,100689.41
2019-04-14T10:21:17.554Z,100696.57
2019-04-14T10:24:18.851Z,100690.47
2019-04-14T10:27:20.929Z,100686.77
2019-04-14T10:30:22.927Z,100705.19
2019-04-14T10:33:28.033Z,100689.48
2019-04-14T10:36:30.061Z,100694.66
2019-04-14T10:39:34.103Z,100689.95
2019-04-14T10:42:36.062Z,100687.95
2019-04-14T10:45:38.003Z,100686.79
2019-04-14T10:48:39.976Z,100681.66
2019-04-14T10:51:41.946Z,100681.80
2019-04-14T10:54:43.873Z,100705.92
2019-04-14T10:57:45.883Z,100692.72
2019-04-14T11:00:47.811Z,100681.48
2019-04-14T11:03:49.781Z,100686.33
2019-04-14T11:07:04.539Z,100680.43
2019-04-14T11:10:07.489Z,100681.71
2019-04-14T11:13:09.480Z,100678.17
2019-04-14T11:16:11.477Z,100682.45
2019-04-14T11:19:13.440Z,100675.64
2019-04-14T11:22:15.477Z,100689.75
2019-04-14T11:25:17.490Z,100695.31
2019-04-14T11:28:19.576Z,100694.09
2019-04-14T11:31:40.085Z,100678.68
2019-04-14T11:34:43.878Z,100683.04
2019-04-14T11:37:50.671Z,100686.64
2019-04-14T11:40:54.503Z,100688.14
2019-04-14T11:43:56.446Z,100688.23
2019-04-14T11:46:58.471Z,100681.23
2019-04-14T11:50:00.388Z,100683.04
2019-04-14T11:53:02.284Z,100693.55
2019-04-14T11:56:05.090Z,100683.52
2019-04-14T11:59:06.980Z,100684.20
2019-04-14T12:02:10.797Z,100691.53
2019-04-14T12:05:14.677Z,100678.58
2019-04-14T12:08:35.089Z,100686.16
2019-04-14T12:11:37.000Z,100681.66
2019-04-14T12:14:38.931Z,100689.23
2019-04-14T12:17:40.890Z,100679.34
2019-04-14T12:20:43.084Z,100679.80
2019-04-14T12:23:44.958Z,100680.47
2019-04-14T12:26:46.941Z,100700.54
2019-04-14T12:29:50.060Z,100690.76
2019-04-14T12:32:52.272Z,100684.50
2019-04-14T12:35:54.308Z,100677.59
2019-04-14T12:38:56.793Z,100679.55
2019-04-14T12:42:06.433Z,100671.03
2019-04-14T12:45:11.639Z,100673.71
2019-04-14T12:48:15.424Z,100672.21
2019-04-14T12:51:20.601Z,100683.79
2019-04-14T12:54:23.169Z,100678.08
2019-04-14T12:57:38.971Z,100677.18
2019-04-14T13:00:42.707Z,100670.02
2019-04-14T13:03:44.696Z,100664.02
2019-04-14T13:06:47.740Z,100683.12
2019-04-14T13:09:49.770Z,100662.92
2019-04-14T13:12:51.667Z,100676.67
2019-04-14T13:15:54.271Z,100670.84
2019-04-14T13:18:56.209Z,100671.39
2019-04-14T13:21:58.228Z,100673.95
2019-04-14T13:25:00.152Z,100674.31
2019-04-14T13:28:03.661Z,100668.28
2019-04-14T13:31:06.103Z,100662.12
2019-04-14T13:34:08.140Z,100669.05
2019-04-14T13:37:10.114Z,100664.55
2019-04-14T13:40:12.600Z,100662.34
2019-04-14T13:43:14.553Z,100665.48
2019-04-14T13:46:16.493Z,100671.59
2019-04-14T13:49:18.480Z,100661.73
2019-04-14T13:52:20.515Z,100663.38
2019-04-14T13:55:22.487Z,100681.36
2019-04-14T13:58:24.455Z,100675.01
2019-04-14T14:01:26.391Z,100662.61
2019-04-14T14:04:29.350Z,100684.42
2019-04-14T14:07:33.254Z,100662.86
2019-04-14T14:10:36.036Z,100664.83
2019-04-14T14:13:39.778Z,100665.08
2019-04-14T14:16:49.871Z,100659.30
2019-04-14T14:19:53.642Z,100669.23
2019-04-14T14:23:14.004Z,100669.99
2019-04-14T14:26:17.737Z,100666.31
2019-04-14T14:29:19.676Z,100675.75
2019-04-14T14:32:23.529Z,100674.37
2019-04-14T14:35:25.590Z,100674.97
2019-04-14T14:38:28.611Z,100682.06
2019-04-14T14:41:30.714Z,100676.52
2019-04-14T14:44:34.476Z,100677.16
2019-04-14T14:47:36.439Z,100673.27
2019-04-14T14:50:49.399Z,100673.11
2019-04-14T14:53:51.381Z,100683.93
2019-04-14T14:56:53.397Z,100676.81
2019-04-14T14:59:55.313Z,100673.54
2019-04-14T15:02:57.588Z,100672.38
2019-04-14T15:05:59.595Z,100681.12
2019-04-14T15:09:01.543Z,100665.34
2019-04-14T15:12:05.364Z,100672.25
2019-04-14T15:15:07.492Z,100684.17
2019-04-14T15:18:09.397Z,100668.08
2019-04-14T15:21:11.340Z,100668.32
2019-04-14T15:24:13.321Z,100671.67
2019-04-14T15:27:15.250Z,100676.09
2019-04-14T15:30:20.203Z,100673.06
2019-04-14T15:33:23.472Z,100669.45
2019-04-14T15:36:25.400Z,100679.12
2019-04-14T15:39:29.145Z,100678.28
2019-04-14T15:42:31.124Z,100671.33
2019-04-14T15:45:33.106Z,100693.73
2019-04-14T15:48:37.893Z,100668.91
2019-04-14T15:51:39.847Z,100686.28
2019-04-14T15:54:41.941Z,100687.14
2019-04-14T15:57:48.691Z,100688.81
2019-04-14T16:00:52.535Z,100707.36
2019-04-14T16:03:59.416Z,100696.88
2019-04-14T16:07:03.203Z,100702.20
2019-04-14T16:10:16.618Z,100693.59
2019-04-14T16:13:23.250Z,100691.63
2019-04-14T16:16:26.974Z,100699.13
2019-04-14T16:19:42.481Z,100694.48
2019-04-14T16:22:46.243Z,100695.32
2019-04-14T16:25:50.921Z,100707.27
2019-04-14T16:29:13.159Z,100699.59
2019-04-14T16:32:35.765Z,100704.33
2019-04-14T16:35:39.585Z,100714.05
2019-04-14T16:38:42.807Z,100719.91
2019-04-14T16:41:44.836Z,100698.41
2019-04-14T16:44:48.680Z,100707.27
2019-04-14T16:47:51.095Z,100714.49
2019-04-14T16:50:55.368Z,100726.08
2019-04-14T16:54:03.565Z,100710.39
2019-04-14T16:57:29.016Z,100718.43
2019-04-14T17:00:33.385Z,100715.68
2019-04-14T17:03:35.835Z,100724.23
2019-04-14T17:06:37.838Z,100730.05
2019-04-14T17:09:40.346Z,100736.98
2019-04-14T17:12:44.821Z,100739.73
2019-04-14T17:15:50.309Z,100747.74
2019-04-14T17:18:55.606Z,100739.77
2019-04-14T17:22:02.637Z,100749.66
2019-04-14T17:25:18.205Z,100750.77
2019-04-14T17:28:40.635Z,100749.66
2019-04-14T17:31:47.509Z,100763.42
2019-04-14T17:34:58.968Z,100765.04
2019-04-14T17:38:09.913Z,100762.77
2019-04-14T17:41:13.701Z,100773.19
2019-04-14T17:44:35.390Z,100774.80
2019-04-14T17:47:52.642Z,100787.41
2019-04-14T17:51:12.678Z,100783.47
2019-04-14T17:54:28.344Z,100781.23
2019-04-14T17:57:38.494Z,100781.18
2019-04-14T18:00:55.545Z,100780.60
2019-04-14T18:04:05.828Z,100791.25
2019-04-14T18:07:12.373Z,100795.33
2019-04-14T18:10:19.189Z,100801.03
2019-04-14T18:13:36.141Z,100812.80
2019-04-14T18:16:45.677Z,100814.90
2019-04-14T18:19:54.153Z,100824.96
2019-04-14T18:22:59.481Z,100832.27
2019-04-14T18:26:01.634Z,100836.55
2019-04-14T18:29:05.484Z,100841.38
2019-04-14T18:32:19.054Z,100848.15
2019-04-14T18:35:28.857Z,100849.73
2019-04-14T18:38:43.661Z,100862.84
2019-04-14T18:42:03.970Z,100861.71
2019-04-14T18:45:26.601Z,100860.30
2019-04-14T18:48:33.352Z,100863.49
2019-04-14T18:51:40.330Z,100875.70
2019-04-14T18:54:54.826Z,100876.37
2019-04-14T18:58:02.162Z,100877.08
2019-04-14T19:01:07.809Z,100888.79
2019-04-14T19:04:09.785Z,100882.44
2019-04-14T19:07:11.707Z,100890.00
2019-04-14T19:10:19.206Z,100897.04
2019-04-14T19:13:29.025Z,100907.02
2019-04-14T19:16:39.273Z,100915.70
2019-04-14T19:19:38.437Z,100907.15
2019-04-14T19:22:41.637Z,100910.94
2019-04-14T19:25:46.928Z,100912.26
2019-04-14T19:28:48.914Z,100914.09
2019-04-14T19:31:52.593Z,100915.91
2019-04-14T19:34:54.605Z,100912.48
2019-04-14T19:37:56.982Z,100935.11
2019-04-14T19:41:02.866Z,100935.61
2019-04-14T19:44:05.960Z,100926.42
2019-04-14T19:47:07.950Z,100924.66
2019-04-14T19:50:11.831Z,100933.06
2019-04-14T19:53:14.339Z,100942.47
2019-04-14T19:56:16.305Z,100930.73
2019-04-14T19:59:19.834Z,100937.73
2019-04-14T20:02:21.846Z,100940.36
2019-04-14T20:05:23.865Z,100936.74
2019-04-14T20:08:27.682Z,100942.31
2019-04-14T20:11:32.344Z,100948.16
2019-04-14T20:14:34.265Z,100950.78
2019-04-14T20:17:50.102Z,100958.30
2019-04-14T20:21:13.268Z,100955.45
2019-04-14T20:24:17.246Z,100964.14
2019-04-14T20:27:32.831Z,100962.31
2019-04-14T20:30:38.420Z,100964.86
2019-04-14T20:33:41.786Z,100958.66
2019-04-14T20:36:45.052Z,100965.92
2019-04-14T20:39:47.054Z,100968.02
2019-04-14T20:42:49.724Z,100967.00
2019-04-14T20:45:52.911Z,100973.09
2019-04-14T20:48:56.150Z,100968.00
2019-04-14T20:51:58.117Z,100976.30
2019-04-14T20:55:00.132Z,100979.69
2019-04-14T20:58:02.234Z,100980.16
2019-04-14T21:01:07.164Z,100980.23
2019-04-14T21:04:16.684Z,100989.63
2019-04-14T21:07:20.425Z,100983.66
2019-04-14T21:10:24.179Z,100988.52
2019-04-14T21:13:31.881Z,100981.83
2019-04-14T21:16:44.737Z,100984.73
2019-04-14T21:19:48.508Z,100992.86
2019-04-14T21:23:07.306Z,100990.13
2019-04-14T21:26:11.139Z,100998.03
2019-04-14T21:29:31.430Z,100993.25
2019-04-14T21:32:35.152Z,100989.91
2019-04-14T21:35:38.908Z,101000.19
2019-04-14T21:38:59.501Z,100997.30
2019-04-14T21:42:01.511Z,101005.96
2019-04-14T21:45:05.979Z,101008.31
2019-04-14T21:48:07.977Z,101015.07
2019-04-14T21:51:09.944Z,101020.75
2019-04-14T21:54:11.975Z,101013.94
2019-04-14T21:57:18.822Z,101012.04
2019-04-14T22:00:35.682Z,101011.47
2019-04-14T22:03:53.546Z,101017.83
2019-04-14T22:07:09.425Z,101017.67
2019-04-14T22:10:19.522Z,101020.23
2019-04-14T22:13:22.113Z,101026.00
2019-04-14T22:16:24.153Z,101024.00
2019-04-14T22:19:26.210Z,101039.35
2019-04-14T22:22:28.206Z,101032.90
2019-04-14T22:25:30.195Z,101039.00
2019-04-14T22:28:32.143Z,101035.89
2019-04-14T22:31:34.216Z,101041.34
2019-04-14T22:34:36.149Z,101049.20
2019-04-14T22:37:38.083Z,101044.34
2019-04-14T22:40:41.134Z,101050.86
2019-04-14T22:43:44.050Z,101055.36
2019-04-14T22:46:46.060Z,101047.63
2019-04-14T22:49:48.059Z,101052.48
2019-04-14T22:52:50.021Z,101054.58
2019-04-14T22:55:52.062Z,101053.66
2019-04-14T22:58:54.015Z,101050.75
2019-04-14T23:02:04.027Z,101061.66
2019-04-14T23:05:08.424Z,101051.81
2019-04-14T23:08:14.980Z,101051.28
2019-04-14T23:11:18.856Z,101050.57
2019-04-14T23:14:25.325Z,101054.47
2019-04-14T23:17:34.952Z,101059.67
2019-04-14T23:20:51.030Z,101058.85
2019-04-14T23:24:14.064Z,101064.34
2019-04-14T23:27:16.805Z,101058.70
2019-04-14T23:30:18.787Z,101063.36
2019-04-14T23:33:20.778Z,101064.83
2019-04-14T23:36:22.707Z,101062.01
2019-04-14T23:39:24.690Z,101060.26
2019-04-14T23:42:26.676Z,101053.25
2019-04-14T23:45:28.646Z,101052.12
2019-04-14T23:48:30.612Z,101050.04
2019-04-14T23:51:32.544Z,101050.87
2019-04-14T23:54:34.458Z,101052.13
2019-04-14T23:57:36.497Z,101055.19
